Aircraft
DEFAULT PR-QAA Citation
OMDB
Dubai International Airport
VABO
Vadodara Airport
Pilot:: Eber
Aircraft:: Cessna Citation CJ4
Alternate: VAPO
Network: ivao
FLIGHT DETAILS
Distance: 997nm Duration 02h 28m
Cruise Speed: Flight Level: 41000
Validation: Validated Type Charter
Flight Fuel
ZFW: 5113
Block Fuel/Initial FOB: 2663
Flight Fuel: 1444
Cargo
Passengers: 10
Cargo: 213
ROUTE
ROUTE: IVUR1G IVURO M677 KUSEN A791 LAKIV N894 TELEM G210 VASLA N893 AAE W97 QQZ
REMARKS:
DATE
Date: 26-05-04
Departure Time: 0128
Cargo: 213
FLIGHT DETAILS
Crashed: No
Validator Comments: Validado por Claudenir
Flight Rating: 100
LANDING ANALYSIS
Landing wind: 220º/15 kt
Landing heading: 214º
Landing VS:: -116 ft/min
Landing IAS:: 106 kt
Landing Force G: 1 G
Landing Bank: -2
Landing Pitch: -2
Landing Flaps: 100
Navigation Lights: ON
Landing Lights: ON
Beacon Lights: ON
Strobe Lights: ON
viserfly

ALTITUDE CHART

viserfly

MAIN EVENTS

DATE EVENT IAS ALTITUDE
2026-05-04 01:10:25 FLYacars version 1.3.5 4 15
2026-05-04 01:10:26 FLAPS 50% 4 15
2026-05-04 01:10:26 Beacon Lights ON 4 15
2026-05-04 01:14:50 Starting Engine 2 5 15
2026-05-04 01:15:07 Starting Engine 1 5 15
2026-05-04 01:20:02 Taxi Lights ON 5 15
2026-05-04 01:20:03 Aircraft boarding in progress 5 15
2026-05-04 01:20:03 Navigation Lights ON 5 15
2026-05-04 01:20:04 Strobe Lights ON 5 15
2026-05-04 01:25:14 Aircraft taxiing to runway 0 15
2026-05-04 01:28:10 Landing Lights ON 0 15
2026-05-04 01:28:10 Taxi Lights OFF 0 15
2026-05-04 01:28:59 Detected Take-off roll, HDG 304, IAS 118kt, GS 125kt, G-force 1.0g, Pitch -5.5deg, Bank -3.1deg, Wind 190/06kt, Temp 28°C 118 16
2026-05-04 01:28:59 Airborne 118 16
2026-05-04 01:29:05 Gear UP, IAS 142kt, GS 150kt, ALT 43ft AGL 142 56
2026-05-04 01:29:29 FLAPS 0% 202kt, ALT 1003ft 202 1003
2026-05-04 01:34:44 Landing Lights OFF 218 10151
2026-05-04 01:54:10 Aircraft on Top Of Climb at 42302ft, IAS 159kt, GS 367kt, HDG 93deg, TAT -56deg, WIND 286/48kt 159 42302
2026-05-04 03:34:41 Aircraft on Top Of Descent at 40496ft, IAS 225kt, GS 482kt, HDG 103deg, TAT -49deg, WIND 281/53kt 225 40496
2026-05-04 03:47:53 Landing Lights ON 228 9882
2026-05-04 03:47:53 Taxi Lights ON 228 9882
2026-05-04 03:53:30 Gear DOWN, IAS 232kt, GS 231kt, ALT 3098ft AGL 232 3293
2026-05-04 03:54:21 FLAPS 50% 191kt, ALT 2396ft 191 2396
2026-05-04 03:55:39 FLAPS 100% 174kt, ALT 1233ft 174 1233
2026-05-04 03:57:31 Landed at destination with a landing rate of -116fpm, G-force 1.0g, Pitch -1.5deg, Bank -1.8deg, HDG 214deg, IAS 106kt, GS 97kt, Wind 220/15kt, Temp 30°C 106 127
2026-05-04 03:57:43 Aircraft taxiing to apron 37 125
2026-05-04 03:59:25 Navigation Lights OFF 0 125
2026-05-04 03:59:25 Strobe Lights OFF 0 125
2026-05-04 03:59:26 Landing Lights OFF 0 125
2026-05-04 03:59:26 Taxi Lights OFF 0 125
2026-05-04 04:03:46 Aircraft at gate/stand, ground services are moving into position, disembarkation has begun. Remaining FOB 1219kg FLYacars v1.3.5 0 125
viserfly

ACARS DATA

DATE IAS GS ALTITUDE FUEL CONSUMED OAT FLIGHT STATUS
2026-05-04 01:10:56 4 0 15 0 29 BOARDING
2026-05-04 01:11:26 4 0 15 0 29 BOARDING
2026-05-04 01:11:56 4 0 15 0 29 BOARDING
2026-05-04 01:12:26 4 0 15 0 29 BOARDING
2026-05-04 01:12:56 5 0 15 0 29 BOARDING
2026-05-04 01:13:26 5 0 15 0 29 BOARDING
2026-05-04 01:13:56 5 0 15 0 29 BOARDING
2026-05-04 01:14:26 5 0 15 0 29 BOARDING
2026-05-04 01:14:55 5 0 15 0 29 BOARDING
2026-05-04 01:15:26 5 0 15 1 29 BOARDING
2026-05-04 01:15:56 5 0 15 2 29 BOARDING
2026-05-04 01:16:26 5 0 15 3 29 BOARDING
2026-05-04 01:16:56 5 0 15 4 29 BOARDING
2026-05-04 01:17:26 5 0 15 5 29 BOARDING
2026-05-04 01:17:56 5 0 15 6 29 BOARDING
2026-05-04 01:18:26 5 0 15 7 29 BOARDING
2026-05-04 01:18:56 5 0 15 8 29 BOARDING
2026-05-04 01:19:26 5 0 15 9 29 BOARDING
2026-05-04 01:19:56 5 0 15 10 29 BOARDING
2026-05-04 01:20:26 1 2 15 12 28 PUSHBACK
2026-05-04 01:20:56 0 2 15 13 28 PUSHBACK
2026-05-04 01:21:26 0 2 15 14 28 PUSHBACK
2026-05-04 01:21:56 3 2 15 15 28 PUSHBACK
2026-05-04 01:22:26 3 2 15 16 28 PUSHBACK
2026-05-04 01:22:56 0 2 15 17 28 PUSHBACK
2026-05-04 01:23:26 1 0 15 18 28 PUSHBACK
2026-05-04 01:23:56 1 0 15 19 28 PUSHBACK
2026-05-04 01:24:26 1 0 15 20 28 PUSHBACK
2026-05-04 01:24:56 1 0 15 21 28 PUSHBACK
2026-05-04 01:25:26 0 0 15 23 28 TAXI TO RUNWAY
2026-05-04 01:25:56 5 11 15 24 28 TAXI TO RUNWAY
2026-05-04 01:26:26 0 2 15 26 28 TAXI TO RUNWAY
2026-05-04 01:26:56 13 19 15 28 28 TAXI TO RUNWAY
2026-05-04 01:27:26 0 0 15 29 28 TAXI TO RUNWAY
2026-05-04 01:27:56 8 14 15 31 28 TAXI TO RUNWAY
2026-05-04 01:28:26 0 0 15 32 28 TAXI TO RUNWAY
2026-05-04 01:28:56 98 105 15 40 28 TAKEOFF
2026-05-04 01:29:26 193 196 853 53 28 TAKEOFF
2026-05-04 01:29:56 205 205 2893 64 29 CLIMB
2026-05-04 01:30:26 217 226 4540 74 26 CLIMB
2026-05-04 01:30:56 253 280 5309 84 24 ENROUTE
2026-05-04 01:31:25 236 262 5284 86 24 ENROUTE
2026-05-04 01:31:56 225 259 5280 88 24 ENROUTE
2026-05-04 01:32:26 218 255 5272 91 24 ENROUTE
2026-05-04 01:32:56 214 251 5266 94 24 ENROUTE
2026-05-04 01:33:25 219 255 5643 99 23 CLIMB
2026-05-04 01:33:56 218 263 7452 109 18 CLIMB
2026-05-04 01:34:26 218 271 9158 119 14 CLIMB
2026-05-04 01:34:56 219 283 10825 130 10 CLIMB
2026-05-04 01:35:25 218 288 12482 140 7 CLIMB
2026-05-04 01:35:56 218 295 13968 151 5 CLIMB
2026-05-04 01:36:26 248 334 14456 161 4 ENROUTE
2026-05-04 01:36:56 269 358 14462 168 4 ENROUTE
2026-05-04 01:37:26 272 362 14454 175 4 ENROUTE
2026-05-04 01:37:56 269 360 14959 182 3 CLIMB
2026-05-04 01:38:26 267 365 16177 192 0 CLIMB
2026-05-04 01:38:56 267 371 17287 202 -2 CLIMB
2026-05-04 01:39:26 267 378 18334 212 -5 CLIMB
2026-05-04 01:39:56 268 383 19383 222 -7 CLIMB
2026-05-04 01:40:26 267 388 20357 232 -9 CLIMB
2026-05-04 01:40:56 267 394 21316 242 -11 CLIMB
2026-05-04 01:41:26 268 400 22225 251 -13 CLIMB
2026-05-04 01:41:56 267 406 23104 261 -15 CLIMB
2026-05-04 01:42:26 268 411 23978 271 -17 CLIMB
2026-05-04 01:42:56 267 418 24722 280 -19 CLIMB
2026-05-04 01:43:26 267 421 25428 290 -20 CLIMB
2026-05-04 01:43:56 267 428 26127 299 -21 CLIMB
2026-05-04 01:44:26 268 434 26793 309 -22 CLIMB
2026-05-04 01:44:56 267 438 27451 318 -24 CLIMB
2026-05-04 01:45:26 268 444 28010 327 -25 CLIMB
2026-05-04 01:45:56 268 450 28532 336 -26 CLIMB
2026-05-04 01:46:26 268 455 29019 345 -27 CLIMB
2026-05-04 01:46:56 256 445 29909 353 -28 CLIMB
2026-05-04 01:47:26 249 447 30712 362 -30 CLIMB
2026-05-04 01:47:56 234 434 31886 370 -32 CLIMB
2026-05-04 01:48:26 231 435 32657 378 -34 CLIMB
2026-05-04 01:48:56 227 434 33441 386 -36 CLIMB
2026-05-04 01:49:26 223 434 34185 394 -38 CLIMB
2026-05-04 01:49:56 219 434 34896 401 -39 CLIMB
2026-05-04 01:50:26 216 433 35603 408 -41 CLIMB
2026-05-04 01:50:56 213 432 36342 416 -43 CLIMB
2026-05-04 01:51:26 210 429 37098 423 -44 CLIMB
2026-05-04 01:51:56 206 426 37861 430 -46 CLIMB
2026-05-04 01:52:26 203 424 38537 436 -48 CLIMB
2026-05-04 01:52:56 183 398 39948 442 -51 CLIMB
2026-05-04 01:53:26 172 381 40964 448 -53 CLIMB
2026-05-04 01:53:56 159 366 42064 454 -55 CLIMB
2026-05-04 01:54:26 163 375 42366 459 -56 ENROUTE
2026-05-04 01:54:56 169 387 42418 464 -56 ENROUTE
2026-05-04 01:55:26 173 394 42420 468 -56 ENROUTE
2026-05-04 01:55:56 177 400 42421 473 -56 ENROUTE
2026-05-04 01:56:26 180 406 42420 477 -56 ENROUTE
2026-05-04 01:56:56 183 411 42420 481 -56 ENROUTE
2026-05-04 01:57:26 186 416 42424 485 -56 ENROUTE
2026-05-04 01:57:56 189 420 42424 489 -56 ENROUTE
2026-05-04 01:58:26 191 423 42440 494 -56 ENROUTE
2026-05-04 01:58:56 192 426 42439 498 -56 ENROUTE
2026-05-04 01:59:26 194 428 42436 502 -56 ENROUTE
2026-05-04 01:59:56 195 431 42429 506 -56 ENROUTE
2026-05-04 02:00:26 195 432 42437 510 -56 ENROUTE
2026-05-04 02:00:56 196 434 42435 515 -56 ENROUTE
2026-05-04 02:01:26 197 435 42432 519 -56 ENROUTE
2026-05-04 02:01:56 198 437 42429 523 -56 ENROUTE
2026-05-04 02:02:26 198 438 42433 527 -56 ENROUTE
2026-05-04 02:02:56 199 438 42432 531 -56 ENROUTE
2026-05-04 02:03:26 199 439 42433 535 -56 ENROUTE
2026-05-04 02:03:56 200 439 42440 540 -56 ENROUTE
2026-05-04 02:04:26 200 439 42445 544 -56 ENROUTE
2026-05-04 02:04:56 201 439 42448 548 -56 ENROUTE
2026-05-04 02:05:26 201 440 42449 552 -56 ENROUTE
2026-05-04 02:05:56 201 440 42438 556 -56 ENROUTE
2026-05-04 02:06:26 201 440 42439 560 -56 ENROUTE
2026-05-04 02:06:56 201 440 42440 564 -56 ENROUTE
2026-05-04 02:07:26 201 441 42441 569 -56 ENROUTE
2026-05-04 02:07:56 200 441 42441 573 -56 ENROUTE
2026-05-04 02:08:26 200 442 42425 577 -56 ENROUTE
2026-05-04 02:08:56 200 442 42425 581 -56 ENROUTE
2026-05-04 02:09:26 200 442 42425 585 -56 ENROUTE
2026-05-04 02:09:56 201 442 42426 589 -56 ENROUTE
2026-05-04 02:10:26 200 443 42418 593 -56 ENROUTE
2026-05-04 02:10:56 200 443 42418 598 -56 ENROUTE
2026-05-04 02:11:26 200 444 42419 602 -56 ENROUTE
2026-05-04 02:11:56 201 444 42420 606 -56 ENROUTE
2026-05-04 02:12:26 200 445 42407 610 -56 ENROUTE
2026-05-04 02:12:56 200 445 42407 614 -56 ENROUTE
2026-05-04 02:13:26 201 445 42407 618 -56 ENROUTE
2026-05-04 02:13:56 201 445 42408 622 -56 ENROUTE
2026-05-04 02:14:26 201 446 42401 627 -55 ENROUTE
2026-05-04 02:14:56 202 446 42404 631 -56 ENROUTE
2026-05-04 02:15:26 201 446 42410 635 -56 ENROUTE
2026-05-04 02:15:56 201 446 42411 639 -56 ENROUTE
2026-05-04 02:16:26 201 446 42412 643 -56 ENROUTE
2026-05-04 02:16:56 201 446 42412 647 -56 ENROUTE
2026-05-04 02:17:26 201 446 42412 651 -56 ENROUTE
2026-05-04 02:17:56 201 446 42413 656 -56 ENROUTE
2026-05-04 02:18:26 201 446 42413 660 -56 ENROUTE
2026-05-04 02:18:56 201 446 42413 664 -55 ENROUTE
2026-05-04 02:19:26 201 446 42413 668 -55 ENROUTE
2026-05-04 02:19:56 201 446 42414 672 -55 ENROUTE
2026-05-04 02:20:26 201 446 42414 676 -55 ENROUTE
2026-05-04 02:20:56 202 446 42416 680 -55 ENROUTE
2026-05-04 02:21:26 202 446 42416 685 -55 ENROUTE
2026-05-04 02:21:56 202 446 42417 689 -55 ENROUTE
2026-05-04 02:22:26 202 446 42417 693 -55 ENROUTE
2026-05-04 02:22:56 202 446 42417 697 -55 ENROUTE
2026-05-04 02:23:26 202 446 42417 701 -55 ENROUTE
2026-05-04 02:23:56 202 446 42418 705 -55 ENROUTE
2026-05-04 02:24:26 202 446 42417 709 -55 ENROUTE
2026-05-04 02:24:56 202 446 42417 714 -55 ENROUTE
2026-05-04 02:25:26 201 446 42416 718 -55 ENROUTE
2026-05-04 02:25:56 201 446 42416 722 -55 ENROUTE
2026-05-04 02:26:26 201 446 42416 726 -55 ENROUTE
2026-05-04 02:26:56 202 446 42419 730 -55 ENROUTE
2026-05-04 02:27:26 202 446 42421 734 -55 ENROUTE
2026-05-04 02:27:56 202 446 42420 738 -55 ENROUTE
2026-05-04 02:28:26 202 446 42420 743 -55 ENROUTE
2026-05-04 02:28:56 202 446 42420 747 -55 ENROUTE
2026-05-04 02:29:26 202 446 42420 751 -55 ENROUTE
2026-05-04 02:29:56 201 446 42415 755 -55 ENROUTE
2026-05-04 02:30:26 201 446 42414 759 -55 ENROUTE
2026-05-04 02:30:56 201 446 42414 763 -55 ENROUTE
2026-05-04 02:31:26 201 446 42415 767 -55 ENROUTE
2026-05-04 02:31:56 201 446 42415 771 -55 ENROUTE
2026-05-04 02:32:26 201 447 42404 776 -55 ENROUTE
2026-05-04 02:32:56 202 447 42412 780 -55 ENROUTE
2026-05-04 02:33:26 202 447 42413 784 -55 ENROUTE
2026-05-04 02:33:56 202 447 42414 788 -55 ENROUTE
2026-05-04 02:34:26 201 447 42412 792 -55 ENROUTE
2026-05-04 02:34:56 201 447 42411 796 -55 ENROUTE
2026-05-04 02:35:26 201 447 42411 800 -55 ENROUTE
2026-05-04 02:35:56 201 447 42411 805 -55 ENROUTE
2026-05-04 02:36:26 201 447 42411 809 -55 ENROUTE
2026-05-04 02:36:56 201 448 42401 813 -55 ENROUTE
2026-05-04 02:37:26 201 448 42401 817 -55 ENROUTE
2026-05-04 02:37:56 201 448 42402 821 -55 ENROUTE
2026-05-04 02:38:26 201 448 42403 825 -55 ENROUTE
2026-05-04 02:38:56 202 448 42405 829 -55 ENROUTE
2026-05-04 02:39:26 202 448 42407 834 -55 ENROUTE
2026-05-04 02:39:56 202 448 42408 838 -55 ENROUTE
2026-05-04 02:40:26 202 448 42408 842 -55 ENROUTE
2026-05-04 02:40:56 202 448 42408 846 -55 ENROUTE
2026-05-04 02:41:26 202 448 42408 850 -55 ENROUTE
2026-05-04 02:41:56 202 448 42408 854 -55 ENROUTE
2026-05-04 02:42:26 202 448 42405 858 -55 ENROUTE
2026-05-04 02:42:56 202 448 42407 863 -55 ENROUTE
2026-05-04 02:43:26 201 448 42398 867 -55 ENROUTE
2026-05-04 02:43:56 202 448 42395 871 -55 ENROUTE
2026-05-04 02:44:26 202 449 42395 875 -55 ENROUTE
2026-05-04 02:44:56 202 448 42407 879 -55 ENROUTE
2026-05-04 02:45:26 202 448 42409 883 -55 ENROUTE
2026-05-04 02:45:56 202 448 42410 887 -55 ENROUTE
2026-05-04 02:46:26 202 448 42410 892 -55 ENROUTE
2026-05-04 02:46:56 202 447 42410 896 -55 ENROUTE
2026-05-04 02:47:26 202 447 42410 900 -55 ENROUTE
2026-05-04 02:47:56 202 447 42410 904 -55 ENROUTE
2026-05-04 02:48:26 201 448 42403 908 -54 ENROUTE
2026-05-04 02:48:56 201 448 42402 912 -54 ENROUTE
2026-05-04 02:49:26 202 448 42402 916 -54 ENROUTE
2026-05-04 02:49:56 202 448 42402 920 -54 ENROUTE
2026-05-04 02:50:26 201 448 42401 925 -55 ENROUTE
2026-05-04 02:50:56 202 448 42406 929 -55 ENROUTE
2026-05-04 02:51:26 202 448 42413 933 -55 ENROUTE
2026-05-04 02:51:56 202 448 42414 937 -55 ENROUTE
2026-05-04 02:52:26 202 448 42415 941 -55 ENROUTE
2026-05-04 02:52:56 201 448 42414 945 -55 ENROUTE
2026-05-04 02:53:26 201 449 42412 949 -55 ENROUTE
2026-05-04 02:53:56 201 449 42412 954 -55 ENROUTE
2026-05-04 02:54:26 201 449 42413 958 -55 ENROUTE
2026-05-04 02:54:56 201 449 42413 962 -55 ENROUTE
2026-05-04 02:55:26 201 450 42398 966 -55 ENROUTE
2026-05-04 02:55:56 201 450 42398 970 -55 ENROUTE
2026-05-04 02:56:26 201 450 42398 974 -55 ENROUTE
2026-05-04 02:56:56 201 450 42399 978 -55 ENROUTE
2026-05-04 02:57:26 202 450 42420 983 -55 ENROUTE
2026-05-04 02:57:56 201 450 42420 987 -55 ENROUTE
2026-05-04 02:58:26 202 450 42420 991 -55 ENROUTE
2026-05-04 02:58:56 202 450 42420 995 -55 ENROUTE
2026-05-04 02:59:26 202 450 42420 999 -55 ENROUTE
2026-05-04 02:59:56 202 451 42417 1003 -54 ENROUTE
2026-05-04 03:00:26 202 451 42412 1007 -54 ENROUTE
2026-05-04 03:00:56 202 451 42412 1012 -54 ENROUTE
2026-05-04 03:01:26 202 451 42412 1016 -54 ENROUTE
2026-05-04 03:01:56 202 451 42412 1020 -54 ENROUTE
2026-05-04 03:02:26 203 451 42413 1024 -54 ENROUTE
2026-05-04 03:02:56 202 450 42415 1028 -54 ENROUTE
2026-05-04 03:03:26 202 450 42415 1032 -54 ENROUTE
2026-05-04 03:03:56 203 449 42429 1036 -55 ENROUTE
2026-05-04 03:04:26 203 449 42429 1040 -55 ENROUTE
2026-05-04 03:04:56 202 449 42427 1045 -55 ENROUTE
2026-05-04 03:05:26 202 449 42426 1049 -55 ENROUTE
2026-05-04 03:05:56 202 449 42425 1053 -55 ENROUTE
2026-05-04 03:06:26 202 449 42425 1057 -55 ENROUTE
2026-05-04 03:06:56 202 449 42425 1061 -55 ENROUTE
2026-05-04 03:07:26 201 449 42423 1065 -55 ENROUTE
2026-05-04 03:07:56 202 450 42421 1069 -55 ENROUTE
2026-05-04 03:08:26 202 450 42421 1074 -55 ENROUTE
2026-05-04 03:08:56 202 450 42421 1078 -55 ENROUTE
2026-05-04 03:09:26 202 450 42422 1082 -55 ENROUTE
2026-05-04 03:09:56 202 450 42422 1086 -55 ENROUTE
2026-05-04 03:10:26 202 450 42422 1090 -55 ENROUTE
2026-05-04 03:10:56 202 450 42423 1094 -55 ENROUTE
2026-05-04 03:11:26 202 450 42423 1098 -55 ENROUTE
2026-05-04 03:11:56 202 451 42424 1103 -55 ENROUTE
2026-05-04 03:12:26 201 451 42414 1107 -55 ENROUTE
2026-05-04 03:12:56 201 452 42413 1111 -55 ENROUTE
2026-05-04 03:13:26 202 452 42414 1115 -55 ENROUTE
2026-05-04 03:13:56 202 452 42415 1119 -55 ENROUTE
2026-05-04 03:14:26 202 453 42416 1123 -55 ENROUTE
2026-05-04 03:14:56 201 454 42402 1127 -55 ENROUTE
2026-05-04 03:15:26 202 454 42403 1132 -55 ENROUTE
2026-05-04 03:15:56 202 455 42404 1136 -55 ENROUTE
2026-05-04 03:16:26 203 455 42408 1140 -55 ENROUTE
2026-05-04 03:16:56 204 455 42421 1144 -55 ENROUTE
2026-05-04 03:17:26 203 455 42422 1148 -55 ENROUTE
2026-05-04 03:17:56 203 456 42422 1152 -55 ENROUTE
2026-05-04 03:18:26 203 456 42422 1157 -55 ENROUTE
2026-05-04 03:18:56 203 456 42424 1161 -55 ENROUTE
2026-05-04 03:19:26 204 456 42426 1165 -55 ENROUTE
2026-05-04 03:19:56 203 457 42410 1169 -54 ENROUTE
2026-05-04 03:20:26 203 458 42410 1173 -54 ENROUTE
2026-05-04 03:20:56 203 458 42410 1177 -54 ENROUTE
2026-05-04 03:21:26 204 458 42413 1182 -54 ENROUTE
2026-05-04 03:21:56 204 459 42414 1186 -54 ENROUTE
2026-05-04 03:22:26 204 461 42402 1190 -54 ENROUTE
2026-05-04 03:22:56 207 465 42405 1195 -54 ENROUTE
2026-05-04 03:23:26 213 472 42434 1200 -54 ENROUTE
2026-05-04 03:23:56 216 478 42439 1205 -54 ENROUTE
2026-05-04 03:24:26 219 484 42433 1210 -54 ENROUTE
2026-05-04 03:24:56 221 489 42431 1216 -54 ENROUTE
2026-05-04 03:25:26 224 493 42429 1221 -54 ENROUTE
2026-05-04 03:25:56 225 495 42430 1226 -54 ENROUTE
2026-05-04 03:26:26 224 494 42432 1231 -54 ENROUTE
2026-05-04 03:26:56 224 493 42421 1235 -54 ENROUTE
2026-05-04 03:27:26 223 492 42420 1240 -54 ENROUTE
2026-05-04 03:27:56 222 491 42418 1245 -54 ENROUTE
2026-05-04 03:28:26 222 490 42415 1250 -54 ENROUTE
2026-05-04 03:28:56 222 490 42413 1254 -54 ENROUTE
2026-05-04 03:29:26 223 489 42412 1259 -54 ENROUTE
2026-05-04 03:29:56 222 488 42427 1264 -54 ENROUTE
2026-05-04 03:30:26 222 488 42426 1268 -54 ENROUTE
2026-05-04 03:30:56 221 487 42425 1273 -54 ENROUTE
2026-05-04 03:31:26 221 487 42424 1278 -54 ENROUTE
2026-05-04 03:31:56 221 486 42422 1282 -54 ENROUTE
2026-05-04 03:32:26 221 486 42421 1287 -54 ENROUTE
2026-05-04 03:32:56 221 486 42420 1292 -54 ENROUTE
2026-05-04 03:33:26 221 486 42420 1297 -54 ENROUTE
2026-05-04 03:33:56 221 486 42408 1301 -54 DESCENT
2026-05-04 03:34:26 224 484 41207 1304 -51 DESCENT
2026-05-04 03:34:56 226 481 39819 1306 -47 DESCENT
2026-05-04 03:35:26 228 474 38571 1308 -44 DESCENT
2026-05-04 03:35:56 230 468 37331 1310 -41 DESCENT
2026-05-04 03:36:26 234 466 36003 1312 -38 DESCENT
2026-05-04 03:36:56 239 465 34645 1314 -35 DESCENT
2026-05-04 03:37:26 244 463 33405 1316 -33 DESCENT
2026-05-04 03:37:56 252 464 32113 1318 -31 DESCENT
2026-05-04 03:38:26 266 474 30755 1322 -29 DESCENT
2026-05-04 03:38:56 277 476 29542 1326 -27 DESCENT
2026-05-04 03:39:26 291 483 28288 1331 -25 DESCENT
2026-05-04 03:39:56 299 482 26959 1335 -23 DESCENT
2026-05-04 03:40:26 292 459 25615 1338 -21 DESCENT
2026-05-04 03:40:56 291 446 24267 1340 -19 DESCENT
2026-05-04 03:41:26 289 434 23094 1344 -17 DESCENT
2026-05-04 03:41:56 288 424 21964 1347 -14 DESCENT
2026-05-04 03:42:26 292 422 20810 1351 -12 DESCENT
2026-05-04 03:42:56 296 418 19625 1355 -10 DESCENT
2026-05-04 03:43:26 297 411 18423 1359 -7 DESCENT
2026-05-04 03:43:56 293 398 17368 1362 -5 DESCENT
2026-05-04 03:44:26 288 388 16314 1365 -3 DESCENT
2026-05-04 03:44:56 292 382 15248 1369 -1 DESCENT
2026-05-04 03:45:26 286 374 14402 1372 0 DESCENT
2026-05-04 03:45:56 289 371 13381 1376 3 DESCENT
2026-05-04 03:46:26 266 342 12419 1378 5 DESCENT
2026-05-04 03:46:56 244 313 11515 1379 8 DESCENT
2026-05-04 03:47:26 238 297 10655 1381 10 DESCENT
2026-05-04 03:47:56 226 285 9822 1382 12 DESCENT
2026-05-04 03:48:26 228 278 9063 1384 14 DESCENT
2026-05-04 03:48:56 228 277 8311 1385 16 DESCENT
2026-05-04 03:49:26 233 276 7543 1386 17 DESCENT
2026-05-04 03:49:56 231 275 6757 1388 19 DESCENT
2026-05-04 03:50:26 236 273 5979 1389 20 DESCENT
2026-05-04 03:50:56 234 271 5225 1390 21 DESCENT
2026-05-04 03:51:26 241 271 4460 1392 22 DESCENT
2026-05-04 03:51:56 221 248 4171 1393 22 ENROUTE
2026-05-04 03:52:26 214 236 4163 1395 20 ENROUTE
2026-05-04 03:52:56 232 254 4042 1399 20 DESCENT
2026-05-04 03:53:26 234 236 3387 1401 21 DESCENT
2026-05-04 03:53:56 204 197 2818 1403 22 DESCENT
2026-05-04 03:54:26 185 175 2344 1406 23 APPROACH
2026-05-04 03:54:56 180 175 1878 1410 26 APPROACH
2026-05-04 03:55:26 175 164 1422 1415 26 APPROACH
2026-05-04 03:55:56 148 141 1013 1419 29 ON FINAL
2026-05-04 03:56:26 137 130 641 1423 30 ON FINAL
2026-05-04 03:56:56 121 110 320 1428 30 ON FINAL
2026-05-04 03:57:26 115 105 134 1432 30 ON FINAL
2026-05-04 03:57:56 10 3 125 1433 30 TAXI TO APRON
2026-05-04 03:58:26 5 21 125 1435 30 TAXI TO APRON
2026-05-04 03:58:56 6 14 125 1436 30 TAXI TO APRON
2026-05-04 03:59:26 0 0 125 1437 30 TAXI TO APRON
2026-05-04 03:59:56 0 0 125 1438 30 TAXI TO APRON
2026-05-04 04:00:26 0 0 125 1439 30 TAXI TO APRON
2026-05-04 04:00:56 0 0 125 1440 30 TAXI TO APRON
2026-05-04 04:01:26 0 0 125 1441 30 TAXI TO APRON
2026-05-04 04:01:56 0 0 125 1442 30 TAXI TO APRON
2026-05-04 04:02:26 0 0 125 1443 30 TAXI TO APRON
2026-05-04 04:02:56 0 0 125 1444 30 TAXI TO APRON
2026-05-04 04:03:26 0 0 125 1444 30 TAXI TO APRON
  • Join our VA!

    It has been 11 years of great learning, friendships, and stories.

  • Sign up now!